Witts Springs, AR (72686)

2:48 AM CDT on September 05, 2015 (GMT -0500)
Baskerville | | Change Station
CLOSE
Current Station
Personal Weather Station
Location: Jasper, AR
Elevation: 1703 ft
Nearby Weather Stations

Elev 1703 ft 35.91 °N, 93.18 °W | Updated 1 second ago

Clear
Clear
74.7 °F
Feels Like 75 °F
N
0.0
Wind Variable Wind from West
Gusts 0.0 mph

Today
High -- | Low -- °F
--% Chance of Precip.
Yesterday
High -- | Low -- °F
Precip. -- in
6:46 AM 7:33 PM
Waning Gibbous, 51% visible
Pressure 30.04 in
Visibility 6.0 miles
Clouds Clear
Heat Index 75 °F
Dew Point 69 °F
Humidity 83%
Rainfall 0.00 in
Snow Depth Not available.
UV 0.0 out of 12
Pollen 10.20 out of 12
Air Quality Not available.
Flu Activity Not available.
METAR KCCA 050735Z AUTO 00000KT 6SM BR CLR 20/20 A3004 RMK AO2
Pressure 30.04 in
Visibility 6.0 miles
Clouds Clear
Heat Index 75 °F
Dew Point 69 °F
Humidity 83%
Rainfall 0.00 in
Snow Depth Not available.
UV 0.0 out of 12
Pollen 10.20 out of 12
Air Quality Not available.
Flu Activity Not available.
METAR KCCA 050735Z AUTO 00000KT 6SM BR CLR 20/20 A3004 RMK AO2

10-Day Weather Forecast

×

Almanac

Astronomy

Sep. 05, 2015 Rise Set
Actual Time
Civil Twilight
Nautical Twilight
Astronomical Twilight
Moon
Length of Visible Light
Length of Day
Tomorrow will be .
, % of the Moon is Illuminated

Today's Extremes

State Highs State Lows

Community

WunderPhotos

Upload Photos

1,852,437 photos uploaded!

WunderBlogs® & News

Nearby

Air Quality

  Air Quality AQ Index Pollutant
Not available.

Snow Depth

Station Depth Elevation

Earthquake Activity

City Distance Mag. Time & Date
Minimum magnitude displayed is 2.5.

Coastal Water Temperatures

Place Temperature

Stations

Nearby Weather Stations

Station Location Temp. Windchill Dew Point Humidity Wind Precip. Elev Updated Type